Etihad Airways Virtual Airport Information Service

Dubai International Airport

ICAO: OMDB Country: United Arab Emirates
Latitude: 25.2528 Longitude: 55.3644
Latest Arrival : UAE814 (OERK-OMDB) Latest Departure : FDB131 (OMDB-OOMS)


WX CaptureLIVE
Data provided by noaa.gov | Recorded at 17:07:03

METAR : OMDB 081600Z 27006KT CAVOK 36/28 Q0994 NOSIG

TAF : OMDB 081051Z 0812/0918 29013KT 8000 NSC BECMG 0816/0818 VRB02KT PROB30 0900/0904 BKN012 BECMG 0906/0908 29013KT BECMG 0916/0918 VRB02KT


Runway Data for OMDB
Data provided by openaviationdata.com

Runway ID Mag Var Hdg Length Elevation Surface ILS Freq ILS Id ILS Slope

Dubai International Airport, United Arab Emirates
Use only for reference purposes